sensor_id;sensor_type;location;lat;lon;timestamp;P1;durP1;ratioP1;P2;durP2;ratioP2
18296;SDS011;18066;52.106;5.534;2023-03-01T00:10:03;10.77;;;6.53;;
18296;SDS011;18066;52.106;5.534;2023-03-01T02:43:12;10.27;;;5.20;;
18296;SDS011;18066;52.106;5.534;2023-03-01T09:47:41;8.37;;;5.23;;
18296;SDS011;18066;52.106;5.534;2023-03-01T09:52:50;6.50;;;4.07;;
18296;SDS011;18066;52.106;5.534;2023-03-01T09:54:12;8.67;;;4.00;;
18296;SDS011;18066;52.106;5.534;2023-03-01T09:57:36;4.70;;;3.27;;
18296;SDS011;18066;52.106;5.534;2023-03-01T10:17:28;5.27;;;3.23;;
18296;SDS011;18066;52.106;5.534;2023-03-01T10:24:46;5.30;;;2.80;;
18296;SDS011;18066;52.106;5.534;2023-03-01T10:31:41;6.20;;;2.90;;
18296;SDS011;18066;52.106;5.534;2023-03-01T10:34:52;5.37;;;2.63;;
18296;SDS011;18066;52.106;5.534;2023-03-01T10:37:47;5.37;;;2.90;;
18296;SDS011;18066;52.106;5.534;2023-03-01T10:54:56;3.33;;;2.40;;
18296;SDS011;18066;52.106;5.534;2023-03-01T11:01:08;5.47;;;2.10;;
18296;SDS011;18066;52.106;5.534;2023-03-01T11:04:10;5.53;;;2.60;;
18296;SDS011;18066;52.106;5.534;2023-03-01T11:06:42;3.80;;;2.73;;
18296;SDS011;18066;52.106;5.534;2023-03-01T11:09:54;2.80;;;2.03;;
18296;SDS011;18066;52.106;5.534;2023-03-01T11:12:28;3.60;;;2.03;;
18296;SDS011;18066;52.106;5.534;2023-03-01T11:18:24;3.43;;;2.20;;
18296;SDS011;18066;52.106;5.534;2023-03-01T11:21:34;4.77;;;2.77;;
18296;SDS011;18066;52.106;5.534;2023-03-01T11:24:43;5.93;;;2.77;;
18296;SDS011;18066;52.106;5.534;2023-03-01T11:31:04;4.10;;;2.80;;
18296;SDS011;18066;52.106;5.534;2023-03-01T11:33:56;6.80;;;2.77;;
18296;SDS011;18066;52.106;5.534;2023-03-01T11:36:38;5.47;;;3.07;;
18296;SDS011;18066;52.106;5.534;2023-03-01T11:39:46;4.07;;;2.63;;
18296;SDS011;18066;52.106;5.534;2023-03-01T11:42:52;9.23;;;2.80;;
18296;SDS011;18066;52.106;5.534;2023-03-01T11:45:57;4.57;;;2.33;;
18296;SDS011;18066;52.106;5.534;2023-03-01T11:54:13;3.80;;;2.50;;
18296;SDS011;18066;52.106;5.534;2023-03-01T12:13:16;4.37;;;2.30;;
18296;SDS011;18066;52.106;5.534;2023-03-01T12:20:25;4.17;;;2.40;;
18296;SDS011;18066;52.106;5.534;2023-03-01T12:53:51;6.10;;;2.90;;
18296;SDS011;18066;52.106;5.534;2023-03-01T13:00:27;5.50;;;2.37;;
18296;SDS011;18066;52.106;5.534;2023-03-01T13:17:43;5.30;;;2.37;;
18296;SDS011;18066;52.106;5.534;2023-03-01T13:20:33;6.60;;;2.43;;
18296;SDS011;18066;52.106;5.534;2023-03-01T13:23:11;3.97;;;2.50;;
18296;SDS011;18066;52.106;5.534;2023-03-01T13:26:04;4.80;;;2.57;;
18296;SDS011;18066;52.106;5.534;2023-03-01T13:34:43;5.80;;;3.00;;
18296;SDS011;18066;52.106;5.534;2023-03-01T13:47:28;3.47;;;2.33;;
18296;SDS011;18066;52.106;5.534;2023-03-01T13:53:50;6.93;;;2.20;;
18296;SDS011;18066;52.106;5.534;2023-03-01T13:56:28;5.27;;;2.60;;
18296;SDS011;18066;52.106;5.534;2023-03-01T15:00:33;4.07;;;2.27;;
18296;SDS011;18066;52.106;5.534;2023-03-01T15:03:20;4.73;;;2.63;;
18296;SDS011;18066;52.106;5.534;2023-03-01T15:15:42;4.23;;;2.40;;
18296;SDS011;18066;52.106;5.534;2023-03-01T15:18:32;4.97;;;2.50;;
18296;SDS011;18066;52.106;5.534;2023-03-01T15:21:38;4.33;;;2.60;;
18296;SDS011;18066;52.106;5.534;2023-03-01T15:24:06;4.97;;;3.00;;
18296;SDS011;18066;52.106;5.534;2023-03-01T15:27:00;5.03;;;2.47;;
18296;SDS011;18066;52.106;5.534;2023-03-01T15:29:50;5.70;;;2.97;;
18296;SDS011;18066;52.106;5.534;2023-03-01T15:32:26;5.77;;;2.83;;
18296;SDS011;18066;52.106;5.534;2023-03-01T15:35:32;5.20;;;3.47;;
18296;SDS011;18066;52.106;5.534;2023-03-01T15:38:03;4.70;;;2.27;;
18296;SDS011;18066;52.106;5.534;2023-03-01T15:40:51;5.17;;;2.87;;
18296;SDS011;18066;52.106;5.534;2023-03-01T15:46:20;7.17;;;2.50;;
18296;SDS011;18066;52.106;5.534;2023-03-01T15:48:57;4.10;;;2.50;;
18296;SDS011;18066;52.106;5.534;2023-03-01T15:51:29;3.97;;;2.60;;
18296;SDS011;18066;52.106;5.534;2023-03-01T15:54:40;3.07;;;2.47;;
18296;SDS011;18066;52.106;5.534;2023-03-01T15:57:18;3.83;;;2.50;;
18296;SDS011;18066;52.106;5.534;2023-03-01T15:59:45;5.53;;;3.00;;
18296;SDS011;18066;52.106;5.534;2023-03-01T16:02:14;4.27;;;2.80;;
18296;SDS011;18066;52.106;5.534;2023-03-01T16:04:53;5.53;;;2.73;;
18296;SDS011;18066;52.106;5.534;2023-03-01T16:07:35;6.90;;;3.57;;
18296;SDS011;18066;52.106;5.534;2023-03-01T16:10:05;8.60;;;2.97;;
18296;SDS011;18066;52.106;5.534;2023-03-01T16:12:38;6.43;;;2.50;;
18296;SDS011;18066;52.106;5.534;2023-03-01T16:15:24;5.90;;;2.60;;
18296;SDS011;18066;52.106;5.534;2023-03-01T16:17:57;5.10;;;3.07;;
18296;SDS011;18066;52.106;5.534;2023-03-01T16:20:26;5.00;;;2.90;;
18296;SDS011;18066;52.106;5.534;2023-03-01T16:23:02;6.63;;;2.70;;
18296;SDS011;18066;52.106;5.534;2023-03-01T16:25:33;9.47;;;2.57;;
18296;SDS011;18066;52.106;5.534;2023-03-01T16:28:05;3.97;;;2.40;;
18296;SDS011;18066;52.106;5.534;2023-03-01T16:30:37;6.07;;;2.53;;
18296;SDS011;18066;52.106;5.534;2023-03-01T16:33:09;3.77;;;2.60;;
18296;SDS011;18066;52.106;5.534;2023-03-01T16:35:40;4.33;;;2.30;;
18296;SDS011;18066;52.106;5.534;2023-03-01T16:38:08;5.63;;;2.60;;
18296;SDS011;18066;52.106;5.534;2023-03-01T16:40:39;5.10;;;2.80;;
18296;SDS011;18066;52.106;5.534;2023-03-01T16:43:10;6.97;;;2.70;;
18296;SDS011;18066;52.106;5.534;2023-03-01T16:45:37;6.90;;;3.33;;
18296;SDS011;18066;52.106;5.534;2023-03-01T16:48:05;4.07;;;2.80;;
18296;SDS011;18066;52.106;5.534;2023-03-01T16:50:43;4.87;;;2.70;;
18296;SDS011;18066;52.106;5.534;2023-03-01T16:53:10;5.73;;;3.13;;
18296;SDS011;18066;52.106;5.534;2023-03-01T16:55:52;7.10;;;3.23;;
18296;SDS011;18066;52.106;5.534;2023-03-01T16:58:22;8.60;;;3.17;;
18296;SDS011;18066;52.106;5.534;2023-03-01T17:00:52;6.07;;;3.00;;
18296;SDS011;18066;52.106;5.534;2023-03-01T17:03:24;4.67;;;2.63;;
18296;SDS011;18066;52.106;5.534;2023-03-01T17:05:55;4.50;;;2.80;;
18296;SDS011;18066;52.106;5.534;2023-03-01T17:08:22;7.73;;;3.33;;
18296;SDS011;18066;52.106;5.534;2023-03-01T17:10:49;6.67;;;3.13;;
18296;SDS011;18066;52.106;5.534;2023-03-01T17:13:21;5.63;;;3.00;;
18296;SDS011;18066;52.106;5.534;2023-03-01T17:15:57;7.27;;;3.37;;
18296;SDS011;18066;52.106;5.534;2023-03-01T17:18:34;6.93;;;3.13;;
18296;SDS011;18066;52.106;5.534;2023-03-01T17:23:59;6.23;;;3.60;;
18296;SDS011;18066;52.106;5.534;2023-03-01T17:26:28;6.10;;;3.27;;
18296;SDS011;18066;52.106;5.534;2023-03-01T17:29:13;8.70;;;3.43;;
18296;SDS011;18066;52.106;5.534;2023-03-01T17:31:48;6.07;;;3.20;;
18296;SDS011;18066;52.106;5.534;2023-03-01T17:34:27;8.67;;;3.00;;
18296;SDS011;18066;52.106;5.534;2023-03-01T17:37:07;6.20;;;3.57;;
18296;SDS011;18066;52.106;5.534;2023-03-01T17:39:37;11.00;;;3.67;;
18296;SDS011;18066;52.106;5.534;2023-03-01T17:42:25;7.47;;;3.43;;
18296;SDS011;18066;52.106;5.534;2023-03-01T17:47:50;8.50;;;4.20;;
18296;SDS011;18066;52.106;5.534;2023-03-01T17:50:21;9.83;;;3.60;;
18296;SDS011;18066;52.106;5.534;2023-03-01T17:52:54;4.77;;;3.33;;
18296;SDS011;18066;52.106;5.534;2023-03-01T17:55:31;5.07;;;3.33;;
18296;SDS011;18066;52.106;5.534;2023-03-01T20:34:38;10.20;;;5.40;;
18296;SDS011;18066;52.106;5.534;2023-03-01T20:41:05;10.90;;;5.10;;
18296;SDS011;18066;52.106;5.534;2023-03-01T20:48:12;9.33;;;5.03;;
18296;SDS011;18066;52.106;5.534;2023-03-01T20:51:24;10.73;;;5.40;;
18296;SDS011;18066;52.106;5.534;2023-03-01T20:59:03;8.67;;;4.67;;
18296;SDS011;18066;52.106;5.534;2023-03-01T21:02:27;10.93;;;5.57;;
18296;SDS011;18066;52.106;5.534;2023-03-01T21:27:12;11.73;;;5.77;;
18296;SDS011;18066;52.106;5.534;2023-03-01T21:30:26;12.77;;;6.27;;
18296;SDS011;18066;52.106;5.534;2023-03-01T21:36:44;11.30;;;5.10;;
